Claytonville, Texas
Current Conditions -  °F | °C
As of 6:55 PM on Saturday 25 Oct 2014 (Local Time) from KSWW Reporting Station
Clear Clear  
Wind Chill: 79°   Ceiling: Unl
Heat Index: 79°   Visibility: 10mi
Dew Point: 48°   Wind: 6mph
Humidity: 33%   Direction: 140°SE
Pressure: 30.12"   Gusts: NA
Location:  32.5104°N, 100.305°W
Report Text: KSWW 252355Z AUTO 14005KT 10SM CLR 26/09 A3012 RMK AO2 T02610088 10305 20261
Loading
Personal Weather Stations






























Interactive Weather Map
Tropical Storm Tracking
New forecast layout! Learn more

10-Day Weather Forecast

Advertisements
Track Severe Weather on mobile